sensor_id;sensor_type;location;lat;lon;timestamp;P1;durP1;ratioP1;P2;durP2;ratioP2
37323;SDS011;23205;49.986;18.950;2022-11-25T00:04:16;144.80;;;58.50;;
37323;SDS011;23205;49.986;18.950;2022-11-25T00:09:43;141.93;;;53.88;;
37323;SDS011;23205;49.986;18.950;2022-11-25T00:14:44;156.48;;;61.10;;
37323;SDS011;23205;49.986;18.950;2022-11-25T00:19:46;144.30;;;55.78;;
37323;SDS011;23205;49.986;18.950;2022-11-25T00:24:48;143.50;;;56.67;;
37323;SDS011;23205;49.986;18.950;2022-11-25T00:29:49;137.60;;;54.70;;
37323;SDS011;23205;49.986;18.950;2022-11-25T00:34:50;134.45;;;53.60;;
37323;SDS011;23205;49.986;18.950;2022-11-25T00:39:51;135.27;;;54.30;;
37323;SDS011;23205;49.986;18.950;2022-11-25T00:44:52;135.38;;;55.17;;
37323;SDS011;23205;49.986;18.950;2022-11-25T00:49:53;131.68;;;54.25;;
37323;SDS011;23205;49.986;18.950;2022-11-25T00:54:54;134.10;;;52.70;;
37323;SDS011;23205;49.986;18.950;2022-11-25T00:59:56;124.93;;;49.38;;
37323;SDS011;23205;49.986;18.950;2022-11-25T01:04:57;132.02;;;51.83;;
37323;SDS011;23205;49.986;18.950;2022-11-25T01:09:58;137.18;;;52.97;;
37323;SDS011;23205;49.986;18.950;2022-11-25T01:14:59;128.70;;;49.65;;
37323;SDS011;23205;49.986;18.950;2022-11-25T01:20:01;126.78;;;50.58;;
37323;SDS011;23205;49.986;18.950;2022-11-25T01:25:02;123.95;;;49.35;;
37323;SDS011;23205;49.986;18.950;2022-11-25T01:30:04;129.98;;;52.22;;
37323;SDS011;23205;49.986;18.950;2022-11-25T01:35:06;125.55;;;50.65;;
37323;SDS011;23205;49.986;18.950;2022-11-25T01:40:09;123.80;;;51.97;;
37323;SDS011;23205;49.986;18.950;2022-11-25T01:50:25;129.07;;;50.15;;
37323;SDS011;23205;49.986;18.950;2022-11-25T01:55:28;125.47;;;47.45;;
37323;SDS011;23205;49.986;18.950;2022-11-25T02:00:30;116.57;;;47.55;;
37323;SDS011;23205;49.986;18.950;2022-11-25T02:05:39;117.45;;;43.85;;
37323;SDS011;23205;49.986;18.950;2022-11-25T02:10:42;114.10;;;46.90;;
37323;SDS011;23205;49.986;18.950;2022-11-25T02:15:43;120.40;;;47.40;;
37323;SDS011;23205;49.986;18.950;2022-11-25T02:20:44;126.40;;;47.80;;
37323;SDS011;23205;49.986;18.950;2022-11-25T02:25:46;114.10;;;45.70;;
37323;SDS011;23205;49.986;18.950;2022-11-25T02:30:50;110.68;;;45.83;;
37323;SDS011;23205;49.986;18.950;2022-11-25T02:35:59;120.15;;;45.22;;
37323;SDS011;23205;49.986;18.950;2022-11-25T02:41:07;114.53;;;45.63;;
37323;SDS011;23205;49.986;18.950;2022-11-25T02:46:13;117.20;;;44.10;;
37323;SDS011;23205;49.986;18.950;2022-11-25T02:51:15;103.18;;;43.90;;
37323;SDS011;23205;49.986;18.950;2022-11-25T02:56:18;114.85;;;45.47;;
37323;SDS011;23205;49.986;18.950;2022-11-25T03:01:20;115.88;;;44.10;;
37323;SDS011;23205;49.986;18.950;2022-11-25T03:06:23;114.80;;;48.22;;
37323;SDS011;23205;49.986;18.950;2022-11-25T03:11:25;123.15;;;47.17;;
37323;SDS011;23205;49.986;18.950;2022-11-25T03:16:46;119.40;;;46.60;;
37323;SDS011;23205;49.986;18.950;2022-11-25T03:21:48;120.05;;;46.13;;
37323;SDS011;23205;49.986;18.950;2022-11-25T03:26:49;115.90;;;44.83;;
37323;SDS011;23205;49.986;18.950;2022-11-25T03:31:51;113.95;;;45.90;;
37323;SDS011;23205;49.986;18.950;2022-11-25T03:36:54;119.22;;;46.42;;
37323;SDS011;23205;49.986;18.950;2022-11-25T03:41:56;114.07;;;45.38;;
37323;SDS011;23205;49.986;18.950;2022-11-25T03:46:57;106.70;;;42.65;;
37323;SDS011;23205;49.986;18.950;2022-11-25T03:51:59;109.18;;;46.10;;
37323;SDS011;23205;49.986;18.950;2022-11-25T03:57:00;113.55;;;46.33;;
37323;SDS011;23205;49.986;18.950;2022-11-25T04:02:06;118.75;;;45.65;;
37323;SDS011;23205;49.986;18.950;2022-11-25T04:07:08;112.40;;;43.22;;
37323;SDS011;23205;49.986;18.950;2022-11-25T04:12:09;115.80;;;44.45;;
37323;SDS011;23205;49.986;18.950;2022-11-25T04:17:38;116.47;;;45.58;;
37323;SDS011;23205;49.986;18.950;2022-11-25T04:22:40;108.07;;;42.13;;
37323;SDS011;23205;49.986;18.950;2022-11-25T04:27:41;112.22;;;46.30;;
37323;SDS011;23205;49.986;18.950;2022-11-25T04:32:43;108.80;;;44.35;;
37323;SDS011;23205;49.986;18.950;2022-11-25T04:37:46;106.95;;;43.17;;
37323;SDS011;23205;49.986;18.950;2022-11-25T04:42:48;96.60;;;42.95;;
37323;SDS011;23205;49.986;18.950;2022-11-25T04:47:52;101.43;;;41.63;;
37323;SDS011;23205;49.986;18.950;2022-11-25T04:52:54;101.40;;;41.25;;
37323;SDS011;23205;49.986;18.950;2022-11-25T04:57:57;105.50;;;42.38;;
37323;SDS011;23205;49.986;18.950;2022-11-25T05:02:58;99.22;;;42.00;;
37323;SDS011;23205;49.986;18.950;2022-11-25T05:07:59;105.15;;;41.00;;
37323;SDS011;23205;49.986;18.950;2022-11-25T05:13:01;98.53;;;42.15;;
37323;SDS011;23205;49.986;18.950;2022-11-25T05:18:04;110.00;;;43.90;;
37323;SDS011;23205;49.986;18.950;2022-11-25T05:23:16;102.05;;;40.90;;
37323;SDS011;23205;49.986;18.950;2022-11-25T05:28:18;103.03;;;42.05;;
37323;SDS011;23205;49.986;18.950;2022-11-25T05:33:19;110.32;;;43.20;;
37323;SDS011;23205;49.986;18.950;2022-11-25T05:38:21;96.18;;;41.05;;
37323;SDS011;23205;49.986;18.950;2022-11-25T05:43:23;101.22;;;40.83;;
37323;SDS011;23205;49.986;18.950;2022-11-25T05:48:24;103.15;;;40.83;;
37323;SDS011;23205;49.986;18.950;2022-11-25T05:53:26;106.38;;;43.20;;
37323;SDS011;23205;49.986;18.950;2022-11-25T05:58:28;94.80;;;39.00;;
37323;SDS011;23205;49.986;18.950;2022-11-25T06:03:32;96.55;;;37.92;;
37323;SDS011;23205;49.986;18.950;2022-11-25T06:08:34;110.63;;;46.78;;
37323;SDS011;23205;49.986;18.950;2022-11-25T06:13:36;101.53;;;43.75;;
37323;SDS011;23205;49.986;18.950;2022-11-25T06:18:37;108.63;;;48.38;;
37323;SDS011;23205;49.986;18.950;2022-11-25T06:23:41;102.57;;;39.20;;
37323;SDS011;23205;49.986;18.950;2022-11-25T06:28:46;89.03;;;39.20;;
37323;SDS011;23205;49.986;18.950;2022-11-25T06:33:48;98.22;;;40.40;;
37323;SDS011;23205;49.986;18.950;2022-11-25T06:38:50;87.43;;;37.67;;
37323;SDS011;23205;49.986;18.950;2022-11-25T06:43:52;92.65;;;39.28;;
37323;SDS011;23205;49.986;18.950;2022-11-25T06:48:53;91.95;;;41.35;;
37323;SDS011;23205;49.986;18.950;2022-11-25T06:53:54;95.28;;;38.92;;
37323;SDS011;23205;49.986;18.950;2022-11-25T06:58:55;93.85;;;41.83;;
37323;SDS011;23205;49.986;18.950;2022-11-25T07:04:00;94.70;;;37.38;;
37323;SDS011;23205;49.986;18.950;2022-11-25T07:09:03;83.13;;;35.47;;
37323;SDS011;23205;49.986;18.950;2022-11-25T07:14:05;102.10;;;45.08;;
37323;SDS011;23205;49.986;18.950;2022-11-25T07:19:06;86.05;;;35.53;;
37323;SDS011;23205;49.986;18.950;2022-11-25T07:24:09;79.88;;;32.90;;
37323;SDS011;23205;49.986;18.950;2022-11-25T07:29:11;80.43;;;32.83;;
37323;SDS011;23205;49.986;18.950;2022-11-25T07:34:19;76.13;;;31.90;;
37323;SDS011;23205;49.986;18.950;2022-11-25T07:39:21;71.07;;;30.67;;
37323;SDS011;23205;49.986;18.950;2022-11-25T07:44:23;72.80;;;31.30;;
37323;SDS011;23205;49.986;18.950;2022-11-25T07:49:31;71.65;;;30.02;;
37323;SDS011;23205;49.986;18.950;2022-11-25T07:54:33;73.70;;;30.55;;
37323;SDS011;23205;49.986;18.950;2022-11-25T07:59:34;72.13;;;30.65;;
37323;SDS011;23205;49.986;18.950;2022-11-25T08:04:35;82.32;;;35.55;;
37323;SDS011;23205;49.986;18.950;2022-11-25T08:09:38;81.63;;;36.60;;
37323;SDS011;23205;49.986;18.950;2022-11-25T08:14:39;82.90;;;32.45;;
37323;SDS011;23205;49.986;18.950;2022-11-25T08:19:40;83.93;;;35.15;;
37323;SDS011;23205;49.986;18.950;2022-11-25T08:24:41;79.07;;;33.60;;
37323;SDS011;23205;49.986;18.950;2022-11-25T08:29:42;75.20;;;31.92;;
37323;SDS011;23205;49.986;18.950;2022-11-25T08:34:44;70.65;;;29.48;;
37323;SDS011;23205;49.986;18.950;2022-11-25T08:39:47;67.75;;;26.83;;
37323;SDS011;23205;49.986;18.950;2022-11-25T08:44:52;73.03;;;29.90;;
37323;SDS011;23205;49.986;18.950;2022-11-25T08:49:54;72.60;;;27.52;;
37323;SDS011;23205;49.986;18.950;2022-11-25T08:54:55;65.47;;;25.92;;
37323;SDS011;23205;49.986;18.950;2022-11-25T08:59:57;62.45;;;24.77;;
37323;SDS011;23205;49.986;18.950;2022-11-25T09:04:58;61.83;;;26.70;;
37323;SDS011;23205;49.986;18.950;2022-11-25T09:09:59;65.60;;;27.42;;
37323;SDS011;23205;49.986;18.950;2022-11-25T09:15:00;63.50;;;27.83;;
37323;SDS011;23205;49.986;18.950;2022-11-25T09:20:03;58.17;;;23.65;;
37323;SDS011;23205;49.986;18.950;2022-11-25T09:25:04;58.53;;;23.88;;
37323;SDS011;23205;49.986;18.950;2022-11-25T09:30:06;57.90;;;25.10;;
37323;SDS011;23205;49.986;18.950;2022-11-25T09:35:07;54.85;;;23.75;;
37323;SDS011;23205;49.986;18.950;2022-11-25T09:40:19;55.67;;;23.38;;
37323;SDS011;23205;49.986;18.950;2022-11-25T09:45:22;51.28;;;21.25;;
37323;SDS011;23205;49.986;18.950;2022-11-25T09:55:52;50.38;;;20.90;;
37323;SDS011;23205;49.986;18.950;2022-11-25T10:00:54;48.08;;;21.10;;
37323;SDS011;23205;49.986;18.950;2022-11-25T10:16:27;44.60;;;19.75;;
37323;SDS011;23205;49.986;18.950;2022-11-25T10:21:30;51.08;;;20.67;;
37323;SDS011;23205;49.986;18.950;2022-11-25T10:26:34;48.50;;;21.63;;
37323;SDS011;23205;49.986;18.950;2022-11-25T10:31:36;49.92;;;22.08;;
37323;SDS011;23205;49.986;18.950;2022-11-25T10:36:38;54.17;;;23.25;;
37323;SDS011;23205;49.986;18.950;2022-11-25T10:47:18;49.50;;;21.95;;
37323;SDS011;23205;49.986;18.950;2022-11-25T10:52:25;47.85;;;20.63;;
37323;SDS011;23205;49.986;18.950;2022-11-25T10:57:27;47.53;;;21.83;;
37323;SDS011;23205;49.986;18.950;2022-11-25T11:02:30;48.15;;;22.02;;
37323;SDS011;23205;49.986;18.950;2022-11-25T11:07:38;51.22;;;21.75;;
37323;SDS011;23205;49.986;18.950;2022-11-25T11:23:25;47.65;;;21.65;;
37323;SDS011;23205;49.986;18.950;2022-11-25T11:38:46;40.92;;;17.33;;
37323;SDS011;23205;49.986;18.950;2022-11-25T11:44:30;39.83;;;18.58;;
37323;SDS011;23205;49.986;18.950;2022-11-25T11:49:34;53.63;;;24.50;;
37323;SDS011;23205;49.986;18.950;2022-11-25T11:55:01;38.55;;;18.23;;
37323;SDS011;23205;49.986;18.950;2022-11-25T12:00:13;35.88;;;16.48;;
37323;SDS011;23205;49.986;18.950;2022-11-25T12:05:19;42.15;;;17.80;;
37323;SDS011;23205;49.986;18.950;2022-11-25T12:10:24;38.05;;;17.15;;
37323;SDS011;23205;49.986;18.950;2022-11-25T12:15:46;62.90;;;26.35;;
37323;SDS011;23205;49.986;18.950;2022-11-25T12:20:56;37.45;;;16.38;;
37323;SDS011;23205;49.986;18.950;2022-11-25T12:26:00;36.28;;;16.65;;
37323;SDS011;23205;49.986;18.950;2022-11-25T12:31:21;34.28;;;16.88;;
37323;SDS011;23205;49.986;18.950;2022-11-25T12:41:29;36.78;;;17.83;;
37323;SDS011;23205;49.986;18.950;2022-11-25T13:02:00;35.78;;;14.77;;
37323;SDS011;23205;49.986;18.950;2022-11-25T13:17:29;41.10;;;16.73;;
37323;SDS011;23205;49.986;18.950;2022-11-25T13:22:33;31.00;;;14.85;;
37323;SDS011;23205;49.986;18.950;2022-11-25T13:32:37;34.20;;;17.60;;
37323;SDS011;23205;49.986;18.950;2022-11-25T13:37:39;35.47;;;15.60;;
37323;SDS011;23205;49.986;18.950;2022-11-25T13:42:43;39.10;;;15.98;;
37323;SDS011;23205;49.986;18.950;2022-11-25T13:47:47;37.05;;;16.67;;
37323;SDS011;23205;49.986;18.950;2022-11-25T13:52:58;35.13;;;16.63;;
37323;SDS011;23205;49.986;18.950;2022-11-25T14:18:44;36.67;;;16.75;;
37323;SDS011;23205;49.986;18.950;2022-11-25T14:23:53;36.63;;;16.50;;
37323;SDS011;23205;49.986;18.950;2022-11-25T14:34:02;41.88;;;18.25;;
37323;SDS011;23205;49.986;18.950;2022-11-25T14:39:06;36.97;;;16.30;;
37323;SDS011;23205;49.986;18.950;2022-11-25T14:44:10;47.58;;;24.42;;
37323;SDS011;23205;49.986;18.950;2022-11-25T14:49:12;41.85;;;17.52;;
37323;SDS011;23205;49.986;18.950;2022-11-25T14:54:13;40.88;;;19.42;;
37323;SDS011;23205;49.986;18.950;2022-11-25T14:59:15;41.90;;;18.13;;
37323;SDS011;23205;49.986;18.950;2022-11-25T15:04:20;41.25;;;16.88;;
37323;SDS011;23205;49.986;18.950;2022-11-25T15:14:27;39.55;;;17.10;;
37323;SDS011;23205;49.986;18.950;2022-11-25T15:19:30;38.90;;;18.70;;
37323;SDS011;23205;49.986;18.950;2022-11-25T15:24:40;52.47;;;23.92;;
37323;SDS011;23205;49.986;18.950;2022-11-25T15:29:42;138.98;;;66.47;;
37323;SDS011;23205;49.986;18.950;2022-11-25T15:34:43;56.88;;;29.88;;
37323;SDS011;23205;49.986;18.950;2022-11-25T15:39:45;80.68;;;40.88;;
37323;SDS011;23205;49.986;18.950;2022-11-25T15:44:51;73.53;;;37.35;;
37323;SDS011;23205;49.986;18.950;2022-11-25T15:54:56;62.42;;;32.33;;
37323;SDS011;23205;49.986;18.950;2022-11-25T16:00:21;125.97;;;64.88;;
37323;SDS011;23205;49.986;18.950;2022-11-25T16:05:56;83.72;;;40.80;;
37323;SDS011;23205;49.986;18.950;2022-11-25T16:10:51;88.43;;;40.15;;
37323;SDS011;23205;49.986;18.950;2022-11-25T16:21:05;74.13;;;34.05;;
37323;SDS011;23205;49.986;18.950;2022-11-25T16:31:12;69.55;;;31.67;;
37323;SDS011;23205;49.986;18.950;2022-11-25T16:36:15;60.78;;;27.40;;
37323;SDS011;23205;49.986;18.950;2022-11-25T16:41:22;165.85;;;77.15;;
37323;SDS011;23205;49.986;18.950;2022-11-25T16:46:24;103.80;;;46.38;;
37323;SDS011;23205;49.986;18.950;2022-11-25T16:51:25;98.00;;;48.45;;
37323;SDS011;23205;49.986;18.950;2022-11-25T16:56:26;90.55;;;45.75;;
37323;SDS011;23205;49.986;18.950;2022-11-25T17:01:28;84.60;;;40.10;;
37323;SDS011;23205;49.986;18.950;2022-11-25T17:06:30;80.90;;;37.13;;
37323;SDS011;23205;49.986;18.950;2022-11-25T17:11:52;75.85;;;38.50;;
37323;SDS011;23205;49.986;18.950;2022-11-25T17:16:54;129.00;;;55.38;;
37323;SDS011;23205;49.986;18.950;2022-11-25T17:21:55;78.50;;;37.40;;
37323;SDS011;23205;49.986;18.950;2022-11-25T17:27:00;86.38;;;42.58;;
37323;SDS011;23205;49.986;18.950;2022-11-25T17:32:02;101.35;;;45.55;;
37323;SDS011;23205;49.986;18.950;2022-11-25T17:37:18;84.95;;;41.72;;
37323;SDS011;23205;49.986;18.950;2022-11-25T17:42:25;64.78;;;31.05;;
37323;SDS011;23205;49.986;18.950;2022-11-25T17:47:27;60.85;;;27.83;;
37323;SDS011;23205;49.986;18.950;2022-11-25T17:52:29;63.38;;;29.63;;
37323;SDS011;23205;49.986;18.950;2022-11-25T17:57:30;70.30;;;31.80;;
37323;SDS011;23205;49.986;18.950;2022-11-25T18:02:31;67.95;;;31.50;;
37323;SDS011;23205;49.986;18.950;2022-11-25T18:07:32;73.28;;;35.33;;
37323;SDS011;23205;49.986;18.950;2022-11-25T18:12:33;73.10;;;34.65;;
37323;SDS011;23205;49.986;18.950;2022-11-25T18:17:35;75.97;;;34.40;;
37323;SDS011;23205;49.986;18.950;2022-11-25T18:22:38;75.95;;;36.25;;
37323;SDS011;23205;49.986;18.950;2022-11-25T18:27:39;77.10;;;35.88;;
37323;SDS011;23205;49.986;18.950;2022-11-25T18:32:41;82.20;;;36.50;;
37323;SDS011;23205;49.986;18.950;2022-11-25T18:37:42;85.03;;;37.97;;
37323;SDS011;23205;49.986;18.950;2022-11-25T18:42:46;79.43;;;38.67;;
37323;SDS011;23205;49.986;18.950;2022-11-25T18:47:47;83.60;;;38.03;;
37323;SDS011;23205;49.986;18.950;2022-11-25T18:52:49;84.07;;;36.85;;
37323;SDS011;23205;49.986;18.950;2022-11-25T18:57:50;86.78;;;37.42;;
37323;SDS011;23205;49.986;18.950;2022-11-25T19:02:51;77.93;;;37.83;;
37323;SDS011;23205;49.986;18.950;2022-11-25T19:07:53;81.55;;;38.00;;
37323;SDS011;23205;49.986;18.950;2022-11-25T19:13:02;87.32;;;41.22;;
37323;SDS011;23205;49.986;18.950;2022-11-25T19:18:05;93.72;;;43.60;;
37323;SDS011;23205;49.986;18.950;2022-11-25T19:23:12;94.07;;;43.13;;
37323;SDS011;23205;49.986;18.950;2022-11-25T19:28:16;92.68;;;43.70;;
37323;SDS011;23205;49.986;18.950;2022-11-25T19:33:24;89.32;;;40.53;;
37323;SDS011;23205;49.986;18.950;2022-11-25T19:38:26;83.45;;;37.30;;
37323;SDS011;23205;49.986;18.950;2022-11-25T19:43:27;78.50;;;35.60;;
37323;SDS011;23205;49.986;18.950;2022-11-25T19:48:28;72.85;;;34.38;;
37323;SDS011;23205;49.986;18.950;2022-11-25T19:53:33;78.47;;;35.83;;
37323;SDS011;23205;49.986;18.950;2022-11-25T19:58:34;71.30;;;31.63;;
37323;SDS011;23205;49.986;18.950;2022-11-25T20:03:35;67.72;;;30.30;;
37323;SDS011;23205;49.986;18.950;2022-11-25T20:08:37;70.10;;;31.30;;
37323;SDS011;23205;49.986;18.950;2022-11-25T20:13:39;71.10;;;30.63;;
37323;SDS011;23205;49.986;18.950;2022-11-25T20:18:40;65.68;;;29.92;;
37323;SDS011;23205;49.986;18.950;2022-11-25T20:23:42;63.10;;;28.67;;
37323;SDS011;23205;49.986;18.950;2022-11-25T20:28:44;61.60;;;28.70;;
37323;SDS011;23205;49.986;18.950;2022-11-25T20:33:45;64.72;;;26.70;;
37323;SDS011;23205;49.986;18.950;2022-11-25T20:38:48;65.07;;;28.50;;
37323;SDS011;23205;49.986;18.950;2022-11-25T20:43:50;65.45;;;29.58;;
37323;SDS011;23205;49.986;18.950;2022-11-25T20:48:55;67.15;;;31.55;;
37323;SDS011;23205;49.986;18.950;2022-11-25T20:53:57;73.38;;;34.90;;
37323;SDS011;23205;49.986;18.950;2022-11-25T20:59:03;94.05;;;42.42;;
37323;SDS011;23205;49.986;18.950;2022-11-25T21:04:05;91.82;;;41.13;;
37323;SDS011;23205;49.986;18.950;2022-11-25T21:09:08;91.85;;;41.95;;
37323;SDS011;23205;49.986;18.950;2022-11-25T21:14:11;90.25;;;42.20;;
37323;SDS011;23205;49.986;18.950;2022-11-25T21:19:13;92.68;;;44.17;;
37323;SDS011;23205;49.986;18.950;2022-11-25T21:24:31;100.60;;;48.78;;
37323;SDS011;23205;49.986;18.950;2022-11-25T21:29:32;102.20;;;46.15;;
37323;SDS011;23205;49.986;18.950;2022-11-25T21:34:33;109.55;;;51.00;;
37323;SDS011;23205;49.986;18.950;2022-11-25T21:39:35;95.57;;;45.47;;
37323;SDS011;23205;49.986;18.950;2022-11-25T21:44:37;102.95;;;48.08;;
37323;SDS011;23205;49.986;18.950;2022-11-25T21:49:39;107.82;;;46.38;;
37323;SDS011;23205;49.986;18.950;2022-11-25T21:54:40;99.22;;;45.72;;
37323;SDS011;23205;49.986;18.950;2022-11-25T21:59:43;101.05;;;48.40;;
37323;SDS011;23205;49.986;18.950;2022-11-25T22:04:44;114.47;;;51.80;;
37323;SDS011;23205;49.986;18.950;2022-11-25T22:09:53;107.90;;;50.25;;
37323;SDS011;23205;49.986;18.950;2022-11-25T22:15:00;99.68;;;45.97;;
37323;SDS011;23205;49.986;18.950;2022-11-25T22:20:01;103.78;;;47.17;;
37323;SDS011;23205;49.986;18.950;2022-11-25T22:25:04;110.55;;;50.38;;
37323;SDS011;23205;49.986;18.950;2022-11-25T22:30:05;102.03;;;47.58;;
37323;SDS011;23205;49.986;18.950;2022-11-25T22:35:13;101.88;;;46.88;;
37323;SDS011;23205;49.986;18.950;2022-11-25T22:40:15;99.68;;;45.28;;
37323;SDS011;23205;49.986;18.950;2022-11-25T22:45:22;102.80;;;45.65;;
37323;SDS011;23205;49.986;18.950;2022-11-25T22:50:27;102.75;;;45.95;;
37323;SDS011;23205;49.986;18.950;2022-11-25T22:55:29;99.43;;;46.88;;
37323;SDS011;23205;49.986;18.950;2022-11-25T23:00:35;190.40;;;73.55;;
37323;SDS011;23205;49.986;18.950;2022-11-25T23:05:37;122.75;;;53.97;;
37323;SDS011;23205;49.986;18.950;2022-11-25T23:10:39;103.85;;;46.03;;
37323;SDS011;23205;49.986;18.950;2022-11-25T23:15:42;128.50;;;54.10;;
37323;SDS011;23205;49.986;18.950;2022-11-25T23:20:44;91.80;;;41.85;;
37323;SDS011;23205;49.986;18.950;2022-11-25T23:25:47;87.57;;;38.60;;
37323;SDS011;23205;49.986;18.950;2022-11-25T23:30:50;88.80;;;39.78;;
37323;SDS011;23205;49.986;18.950;2022-11-25T23:35:51;84.05;;;37.42;;
37323;SDS011;23205;49.986;18.950;2022-11-25T23:40:53;93.03;;;38.97;;
37323;SDS011;23205;49.986;18.950;2022-11-25T23:45:54;81.30;;;36.15;;
37323;SDS011;23205;49.986;18.950;2022-11-25T23:50:56;104.88;;;43.17;;
37323;SDS011;23205;49.986;18.950;2022-11-25T23:55:58;101.10;;;43.03;;
